NCAR-RAP Real-Time Weather Data

Output produced by METARs form (17 December 2018  08:03 UTC)
found at http://weather.rap.ucar.edu/surface/
 
RJFS 170700Z 30013KT 9999 FEW035 SCT045 11/02 Q1016
RJFS 170600Z 30012KT 9999 FEW035 SCT045 11/03 Q1016
RJFS 170500Z 31014KT 9999 FEW035 BKN045 12/04 Q1016
RJFS 170434Z 30015G25KT 9999 FEW030 BKN045 12/04 Q1016 RMK 1CU030 6CU045 A3001
RJFS 170400Z 30013KT 9999 FEW030 SCT045 12/03 Q1016
RJFS 170300Z 30017KT 9999 FEW030 SCT045 12/02 Q1016
RJFS 170200Z 30009KT 9999 FEW030 BKN045 11/03 Q1017
RJFS 170100Z 29006KT 9999 FEW030 SCT045 BKN060 10/04 Q1018
RJFS 170000Z VRB02KT 9999 FEW025 SCT040 BKN060 09/05 Q1017
RJFS 162300Z 27006KT 9999 FEW025 BKN050 09/04 Q1017
RJFS 162200Z 28011KT 9999 FEW025 BKN040 BKN050 09/05 Q1016
RJFS 162100Z 27008KT 9999 FEW030 SCT050 BKN060 09/07 Q1015
RJFS 161900Z 27004KT 9999 FEW030 SCT040 BKN050 08/08 Q1014
RJFS 161800Z 28006KT 9999 FEW030 BKN050 BKN/// 09/08 Q1014
RJFS 161700Z 29005KT 9999 FEW035 SCT050 BKN/// 07/07 Q1015
RJFS 161600Z 27002KT 9999 FEW015 SCT070 BKN180 08/08 Q1014
RJFS 161200Z 33003KT 5000 -SHRA BR FEW006 SCT010 BKN040 09/08 Q1016
RJFS 161116Z 30004KT 5000 -SHRA BR FEW004 SCT020 BKN045 09/08 Q1016 RMK 1ST004 3CU020 5CU045 A3001
RJFS 161100Z 30004KT 4000 -SHRA BR FEW015 SCT020 BKN045 09/08 Q1016
RJFS 161049Z 30004KT 4000 -SHRA BR FEW015 SCT020 BKN045 09/09 Q1016 RMK 1CU015 3CU020 5CU045 A3002
RJFS 161000Z 30007KT 3000 -SHRA BR FEW015 SCT020 BKN030 09/08 Q1016
RJFS 160900Z 35005KT 5000 -SHRA BR FEW010 SCT020 BKN025 09/09 Q1016
RJFS 160844Z 35006KT 4000 -SHRA BR FEW007 SCT010 BKN020 09/08 Q1016 RMK 1ST007 3CU010 6CU020 A3003
RJFS 160830Z 35007KT 3000 SHRA BR FEW007 BKN010 BKN020 09/08 Q1016 RMK 1ST007 5CU010 7CU020 A3003
RJFS 160819Z 34008KT 3000 -SHRA BR BKN007 BKN015 09/08 Q1016 RMK 5ST007 7CU015 A3003
RJFS 160808Z 34007KT 4000 -SHRA BR BKN007 BKN015 08/08 Q1017 RMK 5ST007 7CU015 A3003
RJFS 160800Z 34005KT 5000 -SHRA BR BKN008 BKN015 08/08 Q1016
RJFS 160700Z 02004KT 7000 -SHRA FEW006 BKN009 BKN015 08/07 Q1017
RJFS 160600Z 05003KT 8000 -SHRA FEW007 BKN009 BKN015 08/07 Q1018
RJFS 160500Z 05003KT 010V080 8000 FEW006 BKN010 BKN015 08/06 Q1018
RJFS 160400Z VRB01KT 9000 FEW015 BKN070 07/05 Q1019
RJFS 160300Z 36003KT 330V040 9000 FEW010 SCT040 BKN060 07/05 Q1021
RJFS 160200Z 07003KT 9999 -SHRA FEW030 SCT040 BKN050 05/05 Q1022
RJFS 160100Z 02003KT 350V060 9999 -SHRA FEW030 SCT040 BKN050 05/04 Q1023
RJFS 160000Z 33003KT 9999 -SHRA FEW010 BKN035 BKN050 04/04 Q1023
RJFS 151200Z 03004KT 9999 FEW030 04/03 Q1027
RJFS 151100Z 33004KT 9999 FEW030 06/04 Q1028
RJFS 151000Z 28005KT 9999 FEW030 06/04 Q1028
RJFS 150900Z 30005KT 9999 FEW030 07/04 Q1028
RJFS 150800Z 29005KT 9999 FEW035 09/04 Q1027
RJFS 150700Z 29007KT 9999 FEW040 11/03 Q1027
RJFS 150600Z 26005KT 230V290 9999 FEW030 11/03 Q1027
RJFS 150500Z 24007KT 9999 FEW030 10/03 Q1028
RJFS 150400Z 25006KT 190V290 9999 FEW030 10/03 Q1029
RJFS 150300Z VRB02KT 9999 FEW030 08/01 Q1030
RJFS 150200Z 32003KT 280V030 9999 FEW035 06/02 Q1031
RJFS 150100Z VRB02KT 9999 FEW040 SCT050 03/01 Q1032
RJFS 150000Z VRB02KT 9999 FEW050 02/00 Q1032
RJFS 142300Z 03004KT 9999 FEW050 M00/M01 Q1031
RJFS 142200Z VRB02KT 9999 FEW035 M00/M01 Q1031
RJFS 142100Z VRB02KT 9999 FEW050 00/M01 Q1030